Time;durP1;ratioP1;P1;durP2;ratioP2;P2;SDS_P1;SDS_P2;PMS_P1;PMS_P2;Temp;Humidity;BMP_temperature;BMP_pressure;BME280_temperature;BME280_humidity;BME280_pressure;Samples;Min_cycle;Max_cycle;Signal;HPM_P1;HPM_P2
2023/01/11 00:01:00;;;;;;;;;2.00;1.67;;;;;12.99;100.00;100844.44;5103197;27;45371;-82
2023/01/11 00:03:25;;;;;;;;;1.67;1.67;;;;;12.95;100.00;100833.31;5087965;27;45333;-84
2023/01/11 00:05:54;;;;;;;;;1.67;0.67;;;;;13.09;100.00;100852.97;5082201;27;46125;-83
2023/01/11 00:08:20;;;;;;;;;1.33;1.33;;;;;13.03;100.00;100842.19;5100952;27;45298;-84
2023/01/11 00:10:46;;;;;;;;;1.33;1.33;;;;;13.11;100.00;100853.59;5101490;27;45336;-80
2023/01/11 00:13:12;;;;;;;;;1.67;0.33;;;;;13.12;100.00;100849.09;5081912;27;45684;-81
2023/01/11 00:15:39;;;;;;;;;2.00;1.00;;;;;13.06;100.00;100844.50;5099185;27;47222;-84
2023/01/11 00:18:04;;;;;;;;;2.00;2.00;;;;;13.13;100.00;100848.06;5082530;27;48514;-81
2023/01/11 00:20:30;;;;;;;;;1.00;1.00;;;;;13.15;100.00;100854.03;5102327;27;45339;-84
2023/01/11 00:22:56;;;;;;;;;0.67;0.67;;;;;13.12;100.00;100847.25;5082700;27;45375;-85
2023/01/11 00:25:21;;;;;;;;;0.33;0.33;;;;;13.13;100.00;100840.06;5100548;27;45467;-79
2023/01/11 00:27:48;;;;;;;;;1.00;1.00;;;;;13.05;100.00;100830.31;5101012;27;46172;-82
2023/01/11 00:30:14;;;;;;;;;0.33;0.33;;;;;13.06;100.00;100832.00;5100011;27;45277;-82
2023/01/11 00:32:41;;;;;;;;;2.33;1.33;;;;;13.18;100.00;100842.16;5100632;27;45669;-82
2023/01/11 00:35:07;;;;;;;;;1.00;1.00;;;;;13.11;100.00;100828.75;5082426;27;46200;-83
2023/01/11 00:37:32;;;;;;;;;1.67;1.33;;;;;13.10;100.00;100827.09;5115874;27;47150;-84
2023/01/11 00:39:57;;;;;;;;;1.33;1.33;;;;;13.16;100.00;100831.69;5100239;27;45318;-82
2023/01/11 00:47:57;;;;;;;;;1.00;1.00;;;;;13.09;100.00;100815.59;5092460;27;45892;-78
2023/01/11 00:50:34;;;;;;;;;2.67;1.67;;;;;13.17;100.00;100821.84;5102979;27;45219;-80
2023/01/11 00:53:00;;;;;;;;;0.33;0.33;;;;;13.21;100.00;100831.09;5101852;27;45433;-79
2023/01/11 00:55:26;;;;;;;;;1.67;1.67;;;;;13.16;100.00;100813.00;5089667;27;45518;-84
2023/01/11 00:57:52;;;;;;;;;2.00;0.33;;;;;13.16;100.00;100814.81;5102958;27;46191;-85
2023/01/11 01:00:19;;;;;;;;;0.33;0.33;;;;;13.17;100.00;100811.97;5101409;27;45653;-83
2023/01/11 01:02:46;;;;;;;;;0.67;0.33;;;;;13.21;100.00;100815.09;5103707;27;45340;-84
2023/01/11 01:05:12;;;;;;;;;1.33;1.33;;;;;13.19;100.00;100807.28;5102818;27;45848;-83
2023/01/11 01:07:37;;;;;;;;;1.00;1.00;;;;;13.19;100.00;100806.44;5102613;27;45308;-83
2023/01/11 01:10:03;;;;;;;;;1.33;1.33;;;;;13.17;100.00;100795.97;5102720;27;45245;-77
2023/01/11 01:15:12;;;;;;;;;0.33;0.33;;;;;13.12;100.00;100795.72;5088774;27;45345;-82
2023/01/11 01:17:38;;;;;;;;;1.33;1.33;;;;;13.09;100.00;100788.94;5102604;27;46253;-82
2023/01/11 01:20:04;;;;;;;;;0.67;0.33;;;;;13.17;100.00;100803.16;5096282;27;45299;-78
2023/01/11 01:22:30;;;;;;;;;0.33;0.33;;;;;13.13;100.00;100795.53;5077611;27;45476;-78
2023/01/11 01:24:55;;;;;;;;;0.67;0.67;;;;;13.10;100.00;100790.56;5102390;27;45385;-79
2023/01/11 01:27:20;;;;;;;;;1.00;1.00;;;;;13.12;100.00;100793.88;5104197;27;45457;-84
2023/01/11 01:29:46;;;;;;;;;0.67;0.67;;;;;13.10;100.00;100793.25;5101149;27;46190;-80
2023/01/11 01:32:11;;;;;;;;;0.33;0.33;;;;;13.05;100.00;100784.97;5103321;27;45479;-83
2023/01/11 01:34:36;;;;;;;;;0.00;0.00;;;;;13.04;100.00;100788.66;5102116;27;45354;-81
2023/01/11 01:37:06;;;;;;;;;1.67;1.33;;;;;13.14;100.00;100799.00;5090275;27;45382;-82
2023/01/11 01:39:32;;;;;;;;;0.33;0.33;;;;;13.11;100.00;100788.75;5102703;27;45392;-85
2023/01/11 01:41:57;;;;;;;;;0.00;0.00;;;;;13.05;100.00;100781.47;5102573;27;45240;-82
2023/01/11 01:44:47;;;;;;;;;1.33;0.33;;;;;13.14;100.00;100796.34;5102069;27;45221;-86
2023/01/11 01:47:14;;;;;;;;;1.33;0.33;;;;;13.05;100.00;100779.63;5100692;27;48295;-80
2023/01/11 01:49:43;;;;;;;;;1.33;1.33;;;;;13.11;100.00;100788.75;5083695;27;45284;-81
2023/01/11 01:52:09;;;;;;;;;0.00;0.00;;;;;13.13;100.00;100782.19;5103119;27;45332;-81
2023/01/11 01:54:38;;;;;;;;;0.33;0.33;;;;;13.07;100.00;100777.59;5102299;27;45325;-86
2023/01/11 01:57:31;;;;;;;;;0.33;0.33;;;;;13.13;100.00;100786.69;5102032;27;45320;-85
2023/01/11 02:00:01;;;;;;;;;1.00;1.00;;;;;12.98;100.00;100763.56;5081804;27;45392;-82
2023/01/11 02:02:27;;;;;;;;;0.33;0.33;;;;;13.02;100.00;100776.53;5102505;27;45353;-80
2023/01/11 02:04:55;;;;;;;;;0.00;0.00;;;;;13.02;100.00;100768.53;5100667;27;45473;-82
2023/01/11 02:07:36;;;;;;;;;0.00;0.00;;;;;13.10;100.00;100787.06;5102087;27;45616;-85
2023/01/11 02:10:14;;;;;;;;;0.00;0.00;;;;;13.10;100.00;100776.38;5101761;27;45302;-81
2023/01/11 02:13:02;;;;;;;;;1.00;0.00;;;;;13.11;100.00;100775.41;5103045;27;45502;-81
2023/01/11 02:15:28;;;;;;;;;0.00;0.00;;;;;13.11;100.00;100770.88;5102172;27;45525;-83
2023/01/11 02:17:53;;;;;;;;;0.00;0.00;;;;;13.07;100.00;100777.59;5083871;27;48171;-84
2023/01/11 02:20:34;;;;;;;;;0.33;0.33;;;;;13.13;100.00;100773.34;5100423;27;45358;-85
2023/01/11 02:23:15;;;;;;;;;0.00;0.00;;;;;13.03;100.00;100748.81;5083940;27;45385;-83
2023/01/11 02:26:00;;;;;;;;;0.00;0.00;;;;;13.17;100.00;100776.47;5110368;27;46451;-85
2023/01/11 02:28:30;;;;;;;;;0.33;0.00;;;;;13.08;100.00;100768.56;5089908;27;45541;-79
2023/01/11 02:31:15;;;;;;;;;0.33;0.33;;;;;13.05;100.00;100754.81;5102970;27;45447;-86
2023/01/11 02:34:10;;;;;;;;;0.00;0.00;;;;;13.20;100.00;100770.75;5102157;27;45297;-87
2023/01/11 02:36:47;;;;;;;;;0.00;0.00;;;;;13.05;100.00;100750.28;5085016;27;45440;-80
2023/01/11 02:39:24;;;;;;;;;0.00;0.00;;;;;13.19;100.00;100775.25;5106138;27;45386;-86
2023/01/11 02:45:02;;;;;;;;;0.00;0.00;;;;;13.20;100.00;100757.41;5091990;27;45434;-78
2023/01/11 02:47:51;;;;;;;;;0.67;0.33;;;;;13.19;100.00;100761.91;5101265;27;45292;-80
2023/01/11 02:50:54;;;;;;;;;0.00;0.00;;;;;13.18;100.00;100757.59;5100960;27;45603;-82
2023/01/11 02:53:55;;;;;;;;;0.00;0.00;;;;;13.17;100.00;100745.25;5069811;27;45918;-87
2023/01/11 02:56:26;;;;;;;;;0.00;0.00;;;;;13.12;100.00;100743.19;5074726;27;45328;-86
2023/01/11 02:58:54;;;;;;;;;0.00;0.00;;;;;13.11;100.00;100738.03;5082980;27;47250;-80
2023/01/11 03:01:21;;;;;;;;;0.33;0.00;;;;;13.16;100.00;100751.63;5101129;27;45419;-87
2023/01/11 03:03:50;;;;;;;;;0.33;0.33;;;;;13.17;100.00;100750.59;5100838;27;45373;-84
2023/01/11 03:06:26;;;;;;;;;0.00;0.00;;;;;13.21;100.00;100757.22;5103562;27;45341;-84
2023/01/11 03:08:58;;;;;;;;;0.00;0.00;;;;;13.22;100.00;100745.53;5088568;27;45250;-83
2023/01/11 03:14:46;;;;;;;;;0.00;0.00;;;;;13.23;100.00;100751.69;5088387;27;45331;-88
2023/01/11 03:17:45;;;;;;;;;0.00;0.00;;;;;13.12;100.00;100737.84;5101134;27;45259;-85
2023/01/11 03:20:25;;;;;;;;;0.00;0.00;;;;;13.19;100.00;100751.25;5088992;27;45477;-84
2023/01/11 03:23:03;;;;;;;;;0.00;0.00;;;;;13.08;100.00;100730.41;5100448;27;46203;-84
2023/01/11 03:25:52;;;;;;;;;0.00;0.00;;;;;13.19;100.00;100742.41;5089054;27;45334;-83
2023/01/11 03:28:37;;;;;;;;;0.00;0.00;;;;;13.20;100.00;100738.72;5086777;27;45454;-79
2023/01/11 03:31:29;;;;;;;;;0.00;0.00;;;;;13.15;100.00;100728.63;5098950;27;46362;-83
2023/01/11 03:34:04;;;;;;;;;0.00;0.00;;;;;13.19;100.00;100735.22;5087969;27;47163;-82
2023/01/11 03:36:38;;;;;;;;;0.00;0.00;;;;;13.17;100.00;100737.25;5100997;27;45317;-83
2023/01/11 03:39:24;;;;;;;;;0.00;0.00;;;;;13.22;100.00;100732.19;5086278;27;45390;-83
2023/01/11 03:41:56;;;;;;;;;0.00;0.00;;;;;13.21;100.00;100735.03;5082237;27;46155;-82
2023/01/11 03:44:24;;;;;;;;;0.00;0.00;;;;;13.13;100.00;100719.97;5087270;27;46077;-78
2023/01/11 03:46:54;;;;;;;;;0.00;0.00;;;;;13.12;100.00;100729.00;5101932;27;45254;-85
2023/01/11 03:49:26;;;;;;;;;0.00;0.00;;;;;13.13;100.00;100736.00;5101224;27;46414;-83
2023/01/11 03:51:53;;;;;;;;;0.00;0.00;;;;;13.22;100.00;100748.19;5103499;27;45459;-86
2023/01/11 03:54:25;;;;;;;;;0.00;0.00;;;;;13.15;100.00;100736.63;5099088;27;48323;-85
2023/01/11 03:57:03;;;;;;;;;0.00;0.00;;;;;13.17;100.00;100749.78;5081764;27;45356;-83
2023/01/11 03:59:28;;;;;;;;;0.00;0.00;;;;;13.10;100.00;100739.03;5081906;27;45333;-80
2023/01/11 04:01:55;;;;;;;;;0.00;0.00;;;;;13.10;100.00;100741.69;5099951;27;45212;-78
2023/01/11 04:04:21;;;;;;;;;0.00;0.00;;;;;13.02;100.00;100744.50;5099995;27;46206;-81
2023/01/11 04:06:47;;;;;;;;;0.00;0.00;;;;;13.02;100.00;100742.66;5099817;27;45323;-83
2023/01/11 04:09:12;;;;;;;;;0.00;0.00;;;;;12.99;100.00;100743.88;5100387;27;45376;-83
2023/01/11 04:11:38;;;;;;;;;0.00;0.00;;;;;12.78;100.00;100715.34;5099839;27;45717;-84
2023/01/11 04:14:03;;;;;;;;;0.00;0.00;;;;;12.92;100.00;100740.31;5099782;27;45474;-81
2023/01/11 04:16:28;;;;;;;;;0.00;0.00;;;;;12.85;100.00;100721.59;5099908;27;45293;-83
2023/01/11 04:18:54;;;;;;;;;0.00;0.00;;;;;12.88;100.00;100733.72;5099905;27;45792;-82
2023/01/11 04:21:19;;;;;;;;;0.00;0.00;;;;;12.99;100.00;100745.72;5099628;27;45354;-82
2023/01/11 04:23:45;;;;;;;;;0.00;0.00;;;;;13.11;100.00;100762.06;5098527;27;47030;-80
2023/01/11 04:26:10;;;;;;;;;0.00;0.00;;;;;13.03;100.00;100752.31;5099741;27;45311;-80
2023/01/11 04:28:35;;;;;;;;;0.00;0.00;;;;;13.07;100.00;100753.59;5100285;27;45339;-79
2023/01/11 04:31:01;;;;;;;;;0.00;0.00;;;;;13.04;100.00;100747.78;5099528;27;45488;-80
2023/01/11 04:33:26;;;;;;;;;0.00;0.00;;;;;13.00;100.00;100750.84;5099680;27;46185;-81
2023/01/11 04:35:53;;;;;;;;;0.00;0.00;;;;;13.01;100.00;100741.00;5098233;27;45353;-83
2023/01/11 04:38:18;;;;;;;;;0.00;0.00;;;;;12.99;100.00;100743.88;5100042;27;45254;-81
2023/01/11 04:40:44;;;;;;;;;0.00;0.00;;;;;12.96;100.00;100743.44;5100075;27;45362;-78
2023/01/11 04:43:09;;;;;;;;;0.00;0.00;;;;;13.05;100.00;100762.81;5099952;27;45609;-79
2023/01/11 04:45:34;;;;;;;;;0.00;0.00;;;;;12.94;100.00;100738.28;5101762;27;45221;-80
2023/01/11 04:48:00;;;;;;;;;0.00;0.00;;;;;13.06;100.00;100759.94;5101510;27;45329;-82
2023/01/11 04:50:26;;;;;;;;;0.00;0.00;;;;;12.97;100.00;100750.41;5084819;27;47208;-81
2023/01/11 04:52:52;;;;;;;;;0.00;0.00;;;;;13.03;100.00;100756.81;5100426;27;45338;-81
2023/01/11 04:55:18;;;;;;;;;0.33;0.00;;;;;13.06;100.00;100767.97;5086096;27;45711;-80
2023/01/11 04:57:44;;;;;;;;;0.33;0.00;;;;;13.00;100.00;100758.03;5101351;27;45321;-81
2023/01/11 05:00:10;;;;;;;;;0.00;0.00;;;;;13.00;100.00;100755.38;5098153;27;46601;-80
2023/01/11 05:02:36;;;;;;;;;0.00;0.00;;;;;13.04;100.00;100771.81;5090862;27;47658;-80
2023/01/11 05:05:03;;;;;;;;;0.00;0.00;;;;;12.98;100.00;100755.56;5099847;27;45216;-82
2023/01/11 05:07:28;;;;;;;;;0.33;0.00;;;;;13.00;100.00;100771.38;5101717;27;45337;-81
2023/01/11 05:09:54;;;;;;;;;0.00;0.00;;;;;13.03;100.00;100786.19;5099387;27;46129;-81
2023/01/11 05:12:19;;;;;;;;;0.00;0.00;;;;;12.96;100.00;100778.91;5097945;27;48336;-81
2023/01/11 05:14:44;;;;;;;;;0.00;0.00;;;;;13.02;100.00;100797.88;5101083;27;45215;-81
2023/01/11 05:17:13;;;;;;;;;0.00;0.00;;;;;12.98;100.00;100795.56;5100590;27;45160;-79
2023/01/11 05:19:39;;;;;;;;;0.00;0.00;;;;;12.90;100.00;100798.34;5080510;27;47213;-80
2023/01/11 05:22:04;;;;;;;;;0.00;0.00;;;;;13.06;100.00;100826.66;5099076;27;46285;-79
2023/01/11 05:24:30;;;;;;;;;0.00;0.00;;;;;13.00;100.00;100836.22;5098993;27;45354;-84
2023/01/11 05:26:55;;;;;;;;;0.00;0.00;;;;;12.97;100.00;100825.94;5100114;27;45292;-82
2023/01/11 05:29:20;;;;;;;;;0.00;0.00;;;;;12.98;100.00;100835.59;5098762;27;46166;-80
2023/01/11 05:31:46;;;;;;;;;0.00;0.00;;;;;12.94;100.00;100834.31;5085587;27;45385;-83
2023/01/11 05:34:12;;;;;;;;;0.00;0.00;;;;;12.91;100.00;100833.84;5101760;27;45279;-81
2023/01/11 05:36:38;;;;;;;;;0.33;0.00;;;;;12.89;100.00;100831.38;5092655;27;45294;-81
2023/01/11 05:39:04;;;;;;;;;1.00;0.00;;;;;12.96;100.00;100845.63;5087799;27;47324;-82
2023/01/11 05:41:29;;;;;;;;;0.00;0.00;;;;;12.83;100.00;100834.78;5106154;27;45558;-81
2023/01/11 05:46:41;;;;;;;;;0.33;0.33;;;;;12.91;100.00;100858.72;5108889;27;45323;-82
2023/01/11 05:49:10;;;;;;;;;0.67;0.33;;;;;12.91;100.00;100873.88;5105385;27;45521;-82
2023/01/11 05:51:37;;;;;;;;;0.00;0.00;;;;;12.81;100.00;100874.97;5097361;27;45987;-83
2023/01/11 05:54:04;;;;;;;;;0.00;0.00;;;;;12.84;100.00;100906.63;5108043;27;45209;-81
2023/01/11 05:56:29;;;;;;;;;2.67;1.00;;;;;12.74;100.00;100912.25;5087977;27;45291;-81
2023/01/11 05:58:55;;;;;;;;;1.67;1.67;;;;;12.58;100.00;100910.59;5085922;27;46089;-82
2023/01/11 06:01:23;;;;;;;;;3.00;2.00;;;;;12.34;100.00;100919.66;5102744;27;45449;-84
2023/01/11 06:03:48;;;;;;;;;3.00;1.00;;;;;12.11;100.00;100910.72;5098956;27;45268;-81
2023/01/11 06:06:15;;;;;;;;;1.33;1.33;;;;;11.99;100.00;100920.94;5102012;27;45255;-82
2023/01/11 06:08:41;;;;;;;;;1.67;1.00;;;;;11.87;100.00;100917.88;5101861;27;45524;-80
2023/01/11 06:11:06;;;;;;;;;3.00;3.00;;;;;11.74;100.00;100925.63;5083056;27;48545;-80
2023/01/11 06:13:32;;;;;;;;;2.00;2.00;;;;;11.75;100.00;100929.94;5083482;27;45846;-81
2023/01/11 06:15:58;;;;;;;;;3.33;2.00;;;;;11.76;100.00;100934.25;5101601;27;45336;-82
2023/01/11 06:18:24;;;;;;;;;4.00;3.00;;;;;11.68;100.00;100923.66;5101520;27;45442;-79
2023/01/11 06:20:50;;;;;;;;;4.00;4.00;;;;;11.65;100.00;100929.34;5101303;27;46033;-80
2023/01/11 06:23:16;;;;;;;;;3.33;3.33;;;;;11.58;100.00;100934.53;5083457;27;45235;-80
2023/01/11 06:25:42;;;;;;;;;7.00;6.67;;;;;11.54;100.00;100926.09;5101326;27;45344;-80
2023/01/11 06:28:07;;;;;;;;;3.00;3.00;;;;;11.58;100.00;100935.38;5101339;27;45352;-80
2023/01/11 06:30:33;;;;;;;;;4.00;3.00;;;;;11.56;100.00;100941.88;5100982;27;46027;-79
2023/01/11 06:33:04;;;;;;;;;5.33;2.33;;;;;11.55;100.00;100946.38;5101325;27;45336;-80
2023/01/11 06:35:40;;;;;;;;;7.00;7.00;;;;;11.65;100.00;100956.81;5101769;27;45337;-80
2023/01/11 06:38:08;;;;;;;;;7.33;7.00;;;;;11.60;100.00;100969.81;5101433;27;45249;-80
2023/01/11 06:40:35;;;;;;;;;14.67;13.00;;;;;11.57;100.00;100965.66;5086349;27;46322;-80
2023/01/11 06:43:01;;;;;;;;;21.67;17.00;;;;;11.58;100.00;100971.78;5101089;27;45361;-80
2023/01/11 06:45:26;;;;;;;;;10.00;10.00;;;;;11.56;100.00;100971.16;5101206;27;45353;-80
2023/01/11 06:47:52;;;;;;;;;8.00;8.00;;;;;11.46;100.00;100945.59;5101418;27;45477;-79
2023/01/11 06:50:17;;;;;;;;;10.00;8.67;;;;;11.51;100.00;100963.69;5102782;27;46288;-79
2023/01/11 06:52:42;;;;;;;;;4.67;4.67;;;;;11.48;100.00;100972.03;5098171;27;45316;-79
2023/01/11 06:55:08;;;;;;;;;5.00;5.00;;;;;11.47;100.00;100975.72;5098586;27;45276;-79
2023/01/11 06:57:33;;;;;;;;;4.00;4.00;;;;;11.56;100.00;100981.81;5102614;27;45278;-80
2023/01/11 06:59:59;;;;;;;;;6.67;5.00;;;;;11.56;100.00;100974.66;5102260;27;46381;-79
2023/01/11 07:02:24;;;;;;;;;8.33;7.00;;;;;11.62;100.00;100981.13;5071601;27;45346;-78
2023/01/11 07:04:50;;;;;;;;;4.33;3.67;;;;;11.60;100.00;100969.81;5103062;27;45433;-79
2023/01/11 07:07:15;;;;;;;;;5.00;5.00;;;;;11.58;100.00;100963.81;5102410;27;45316;-79
2023/01/11 07:09:40;;;;;;;;;8.67;7.67;;;;;11.67;100.00;100985.91;5102688;27;46203;-79
2023/01/11 07:12:06;;;;;;;;;9.00;9.00;;;;;11.70;100.00;101001.53;5081131;27;45982;-79
2023/01/11 07:14:31;;;;;;;;;7.67;7.33;;;;;11.67;100.00;100988.59;5099648;27;45523;-80
2023/01/11 07:16:56;;;;;;;;;8.00;7.00;;;;;11.66;100.00;100993.06;5098766;27;46741;-79
2023/01/11 07:19:22;;;;;;;;;5.67;5.67;;;;;11.64;100.00;100988.94;5088073;27;47127;-79
2023/01/11 07:21:47;;;;;;;;;6.67;5.00;;;;;11.61;100.00;100984.75;5096981;27;45349;-80
2023/01/11 07:24:12;;;;;;;;;9.33;6.00;;;;;11.56;100.00;100987.13;5101298;27;45272;-80
2023/01/11 07:26:40;;;;;;;;;5.00;3.00;;;;;11.46;100.00;100972.19;5082049;27;46866;-79
2023/01/11 07:29:09;;;;;;;;;4.67;4.67;;;;;11.65;100.00;101007.38;5100640;27;45502;-79
2023/01/11 07:31:34;;;;;;;;;5.33;3.67;;;;;11.60;100.00;101005.25;5099395;27;45355;-79
2023/01/11 07:33:59;;;;;;;;;6.33;5.00;;;;;11.60;100.00;101010.56;5082397;27;45348;-79
2023/01/11 07:36:25;;;;;;;;;14.33;12.00;;;;;11.67;100.00;101020.53;5100632;27;45628;-79
2023/01/11 07:38:50;;;;;;;;;11.67;11.33;;;;;11.69;100.00;101027.34;5078786;27;47156;-79
2023/01/11 07:43:59;;;;;;;;;24.00;20.67;;;;;11.75;100.00;101047.09;5097492;27;45362;-81
2023/01/11 07:46:25;;;;;;;;;18.33;17.67;;;;;11.73;100.00;101057.91;5082507;27;46324;-78
2023/01/11 07:48:50;;;;;;;;;13.00;13.00;;;;;11.61;100.00;101036.19;5078556;27;47297;-80
2023/01/11 07:51:19;;;;;;;;;27.67;27.33;;;;;11.73;100.00;101057.09;5101240;27;45200;-77
2023/01/11 07:53:45;;;;;;;;;20.00;16.00;;;;;11.70;100.00;101060.13;5099561;27;45604;-78
2023/01/11 07:56:10;;;;;;;;;19.33;16.33;;;;;11.68;100.00;101064.78;5100356;27;45317;-76
2023/01/11 07:58:35;;;;;;;;;7.67;6.33;;;;;11.59;100.00;101056.81;5092532;27;46342;-78
2023/01/11 08:01:01;;;;;;;;;13.33;12.33;;;;;11.57;100.00;101065.97;5081621;27;45397;-78
2023/01/11 08:03:26;;;;;;;;;5.00;4.00;;;;;11.61;100.00;101072.63;5099989;27;45308;-78
2023/01/11 08:05:52;;;;;;;;;11.67;11.00;;;;;11.67;100.00;101098.56;5098472;27;46855;-77
2023/01/11 08:08:18;;;;;;;;;8.00;7.67;;;;;11.66;100.00;101096.91;5099786;27;45409;-78
2023/01/11 08:10:43;;;;;;;;;8.33;8.00;;;;;11.61;100.00;101105.41;5099933;27;45239;-79
2023/01/11 08:15:57;;;;;;;;;12.33;10.33;;;;;11.70;100.00;101119.50;5098393;27;45296;-79
2023/01/11 08:18:22;;;;;;;;;15.00;10.67;;;;;11.77;100.00;101124.16;5092753;27;45503;-79
2023/01/11 08:20:51;;;;;;;;;8.67;8.00;;;;;11.79;100.00;101128.28;5099650;27;45357;-77
2023/01/11 08:23:17;;;;;;;;;14.67;11.67;;;;;11.82;100.00;101141.25;5100219;27;45227;-78
2023/01/11 08:25:43;;;;;;;;;7.00;7.00;;;;;11.86;100.00;101147.91;5099907;27;45323;-78
2023/01/11 08:28:10;;;;;;;;;7.00;6.00;;;;;11.77;100.00;101138.31;5099601;27;45259;-78
2023/01/11 08:30:36;;;;;;;;;4.00;4.00;;;;;11.87;100.00;101160.22;5099265;27;45363;-77
2023/01/11 08:33:03;;;;;;;;;2.33;2.33;;;;;11.81;100.00;101155.59;5081486;27;45371;-79
2023/01/11 08:35:29;;;;;;;;;4.33;4.00;;;;;11.71;100.00;101145.13;5099437;27;45329;-77
2023/01/11 08:37:54;;;;;;;;;5.00;2.67;;;;;11.74;100.00;101159.94;5081234;27;48325;-78
2023/01/11 08:40:20;;;;;;;;;3.67;2.00;;;;;11.81;100.00;101179.56;5099397;27;45369;-78
2023/01/11 08:42:45;;;;;;;;;6.00;3.33;;;;;11.71;100.00;101173.59;5098116;27;45368;-78
2023/01/11 08:45:10;;;;;;;;;3.00;2.00;;;;;11.74;100.00;101179.41;5098986;27;45405;-78
2023/01/11 08:47:36;;;;;;;;;2.67;2.33;;;;;11.77;100.00;101172.91;5097946;27;48468;-77
2023/01/11 08:50:01;;;;;;;;;3.67;3.00;;;;;11.73;100.00;101175.09;5099517;27;45751;-76
2023/01/11 08:52:27;;;;;;;;;1.00;1.00;;;;;11.73;100.00;101183.06;5099524;27;45684;-78
2023/01/11 08:54:52;;;;;;;;;5.67;4.00;;;;;11.79;100.00;101194.88;5098992;27;45490;-77
2023/01/11 08:57:17;;;;;;;;;4.00;4.00;;;;;11.83;100.00;101204.16;5080913;27;47075;-77
2023/01/11 08:59:43;;;;;;;;;5.00;5.00;;;;;11.80;100.00;101209.88;5099158;27;45350;-75
2023/01/11 09:02:09;;;;;;;;;4.67;4.33;;;;;11.84;100.00;101207.66;5099217;27;45264;-76
2023/01/11 09:04:35;;;;;;;;;3.33;3.33;;;;;11.80;100.00;101207.19;5099180;27;45296;-77
2023/01/11 09:07:01;;;;;;;;;3.67;2.67;;;;;11.82;100.00;101205.19;5102387;27;46279;-76
2023/01/11 09:09:26;;;;;;;;;11.67;9.00;;;;;11.79;100.00;101202.84;5102848;27;45247;-77
2023/01/11 09:11:55;;;;;;;;;8.00;8.00;;;;;11.89;100.00;101212.50;5100174;27;45787;-76
2023/01/11 09:14:26;;;;;;;;;11.67;10.00;;;;;11.94;100.00;101221.63;5101767;27;45360;-77
2023/01/11 09:16:52;;;;;;;;;11.67;7.33;;;;;11.97;100.00;101226.59;5102389;27;45859;-76
2023/01/11 09:19:18;;;;;;;;;7.67;7.00;;;;;11.97;100.00;101228.44;5102708;27;45323;-77
2023/01/11 09:21:45;;;;;;;;;13.00;10.67;;;;;12.03;100.00;101234.94;5102633;27;45675;-76
2023/01/11 09:24:10;;;;;;;;;15.00;13.67;;;;;12.06;100.00;101239.91;5084125;27;46180;-76
2023/01/11 09:26:37;;;;;;;;;14.67;11.33;;;;;12.06;100.00;101239.91;5102095;27;45430;-76
2023/01/11 09:29:02;;;;;;;;;10.67;10.33;;;;;12.15;100.00;101259.41;5102146;27;45343;-76
2023/01/11 09:31:28;;;;;;;;;11.67;7.67;;;;;12.15;100.00;101254.06;5102229;27;45622;-76
2023/01/11 09:33:53;;;;;;;;;10.00;10.00;;;;;12.19;100.00;101250.91;5101326;27;45459;-76
2023/01/11 09:36:20;;;;;;;;;7.67;7.67;;;;;12.28;100.00;101258.84;5099014;27;47269;-76
2023/01/11 09:38:49;;;;;;;;;8.00;5.00;;;;;12.32;100.00;101262.81;5083922;27;45364;-76
2023/01/11 09:41:20;;;;;;;;;6.67;4.00;;;;;12.30;100.00;101262.19;5101053;27;45389;-76
2023/01/11 09:43:55;;;;;;;;;6.33;5.00;;;;;12.28;100.00;101269.50;5083278;27;46212;-76
2023/01/11 09:46:23;;;;;;;;;7.00;5.00;;;;;12.30;100.00;101268.31;5101798;27;45350;-76
2023/01/11 09:48:57;;;;;;;;;7.67;5.67;;;;;12.25;100.00;101266.16;5101969;27;45467;-76
2023/01/11 09:51:32;;;;;;;;;7.00;3.33;;;;;12.22;100.00;101269.19;5102398;27;45322;-76
2023/01/11 09:54:00;;;;;;;;;7.00;7.00;;;;;12.15;100.00;101262.88;5101816;27;45290;-76
2023/01/11 09:56:34;;;;;;;;;4.00;4.00;;;;;12.26;100.00;101275.00;5101771;27;45365;-76
2023/01/11 09:59:10;;;;;;;;;10.00;7.67;;;;;12.25;100.00;101284.00;5094555;27;45409;-76
2023/01/11 10:01:48;;;;;;;;;8.67;8.00;;;;;12.24;100.00;101295.66;5101733;27;45260;-76
2023/01/11 10:04:50;;;;;;;;;4.00;3.67;;;;;12.18;100.00;101299.84;5101732;27;45982;-76
2023/01/11 10:07:44;;;;;;;;;7.33;5.00;;;;;12.11;100.00;101309.53;5101668;27;46244;-76
2023/01/11 10:10:30;;;;;;;;;6.00;4.67;;;;;12.07;100.00;101319.72;5101705;27;45381;-76
2023/01/11 10:13:14;;;;;;;;;6.67;5.67;;;;;11.95;100.00;101313.03;5083171;27;45343;-76
2023/01/11 10:16:12;;;;;;;;;4.33;3.67;;;;;11.97;100.00;101325.16;5100992;27;45455;-76
2023/01/11 10:19:00;;;;;;;;;3.00;3.00;;;;;11.89;100.00;101327.03;5101488;27;46181;-76
2023/01/11 10:21:41;;;;;;;;;3.33;3.33;;;;;11.83;100.00;101320.53;5101019;27;45302;-77
2023/01/11 10:24:20;;;;;;;;;6.33;5.33;;;;;11.74;100.00;101320.53;5100279;27;45363;-77
2023/01/11 10:26:49;;;;;;;;;4.33;4.33;;;;;11.67;100.00;101316.06;5082832;27;47311;-76
2023/01/11 10:43:25;;;;;;;;;5.00;4.00;;;;;11.52;100.00;101308.72;5101334;27;45386;-83
2023/01/11 10:45:54;;;;;;;;;3.00;2.67;;;;;11.51;100.00;101312.41;5058955;28;45335;-85
2023/01/11 10:48:35;;;;;;;;;4.00;3.00;;;;;11.48;100.00;101310.91;5093836;27;46170;-86
2023/01/11 10:51:26;;;;;;;;;3.67;3.00;;;;;11.49;100.00;101320.53;5062893;28;48463;-85
2023/01/11 10:54:12;;;;;;;;;2.67;2.67;;;;;11.38;100.00;101310.25;5097820;27;45276;-84
2023/01/11 10:56:38;;;;;;;;;6.00;3.00;;;;;11.47;100.00;101327.03;5100799;27;45453;-81
2023/01/11 10:59:25;;;;;;;;;7.00;4.67;;;;;11.49;100.00;101323.22;5100495;27;45181;-81
2023/01/11 11:01:53;;;;;;;;;4.67;4.67;;;;;11.52;100.00;101322.03;5099722;27;45496;-83
2023/01/11 11:04:39;;;;;;;;;4.33;4.00;;;;;11.55;100.00;101323.56;5101578;27;45564;-85
2023/01/11 11:07:34;;;;;;;;;3.00;1.33;;;;;11.56;100.00;101326.06;5095247;27;45370;-83
2023/01/11 11:10:20;;;;;;;;;5.00;3.33;;;;;11.56;100.00;101325.22;5095769;27;47216;-83
2023/01/11 11:13:41;;;;;;;;;1.67;1.00;;;;;11.28;100.00;101291.75;5081593;27;47288;-83
2023/01/11 11:16:23;;;;;;;;;6.67;5.33;;;;;11.61;100.00;101352.16;4978528;28;45653;-83
2023/01/11 11:18:51;;;;;;;;;8.00;7.00;;;;;11.54;100.00;101344.00;5088971;27;45297;-83
2023/01/11 11:21:21;;;;;;;;;2.33;2.00;;;;;11.49;100.00;101323.22;5100623;27;45277;-85
2023/01/11 11:23:54;;;;;;;;;7.00;5.00;;;;;11.63;100.00;101342.19;5101049;27;45405;-85
2023/01/11 11:26:20;;;;;;;;;5.67;4.00;;;;;11.42;100.00;101292.09;5094116;27;45532;-84
2023/01/11 11:29:02;;;;;;;;;6.00;6.00;;;;;11.60;100.00;101319.41;5095019;27;45473;-83
2023/01/11 11:31:29;;;;;;;;;5.00;4.00;;;;;11.52;100.00;101306.06;5079170;27;46189;-87
2023/01/11 11:33:55;;;;;;;;;5.33;5.00;;;;;11.70;100.00;101315.72;5100603;27;46612;-84
2023/01/11 11:36:23;;;;;;;;;5.00;5.00;;;;;11.86;100.00;101346.84;5079075;27;45316;-84
2023/01/11 11:39:08;;;;;;;;;6.67;4.67;;;;;12.06;100.00;101363.28;5071599;28;45516;-82
2023/01/11 11:41:57;;;;;;;;;2.00;2.00;;;;;12.18;100.00;101370.97;5066793;28;45463;-81
2023/01/11 11:44:25;;;;;;;;;5.33;4.00;;;;;11.95;100.00;101311.22;5066242;27;45532;-85
2023/01/11 11:47:12;;;;;;;;;4.00;4.00;;;;;12.15;100.00;101326.00;5060195;28;45520;-82
2023/01/11 11:49:39;;;;;;;;;7.33;5.67;;;;;12.34;100.00;101348.78;5069211;28;45682;-87
2023/01/11 11:52:06;;;;;;;;;6.00;5.67;;;;;12.17;100.00;101308.84;5058781;28;47386;-84
2023/01/11 11:54:40;;;;;;;;;11.00;8.33;;;;;12.46;100.00;101343.91;5072831;28;47389;-86
2023/01/11 11:57:22;;;;;;;;;3.00;2.00;;;;;12.61;100.00;101357.34;5080013;28;45233;-86
2023/01/11 11:59:52;;;;;;;;;3.33;2.67;;;;;12.56;100.00;101344.53;5058256;28;45369;-88
2023/01/11 12:02:47;;;;;;;;;6.00;5.67;;;;;12.48;100.00;101310.72;5082421;27;45927;-87
2023/01/11 12:05:13;;;;;;;;;1.00;1.00;;;;;12.61;100.00;101322.69;5059121;28;47385;-89
2023/01/11 12:07:44;;;;;;;;;4.00;3.67;;;;;12.83;100.00;101369.09;5057710;28;45414;-84